createdAt,value
2023-05-21T00:00:32.252Z,101222.81
2023-05-21T00:05:34.629Z,101209.81
2023-05-21T00:10:37.108Z,101221.09
2023-05-21T00:15:39.321Z,101218.44
2023-05-21T00:20:41.879Z,101204.03
2023-05-21T00:25:43.927Z,101196.03
2023-05-21T00:30:46.024Z,101184.94
2023-05-21T00:35:48.456Z,101194.59
2023-05-21T00:40:50.994Z,101200.66
2023-05-21T00:45:54.014Z,101194.50
2023-05-21T00:50:56.862Z,101186.41
2023-05-21T00:55:58.966Z,101185.56
2023-05-21T01:01:07.145Z,101183.97
2023-05-21T01:06:10.814Z,101191.09
2023-05-21T01:11:15.196Z,101183.97
2023-05-21T01:16:18.102Z,101188.44
2023-05-21T01:21:25.352Z,101180.34
2023-05-21T01:26:28.781Z,101168.84
2023-05-21T01:31:42.768Z,101164.50
2023-05-21T01:36:55.727Z,101171.63
2023-05-21T01:41:58.477Z,101189.28
2023-05-21T01:47:00.941Z,101176.09
2023-05-21T01:52:03.363Z,101167.25
2023-05-21T01:57:05.693Z,101165.56
2023-05-21T02:02:07.907Z,101168.97
2023-05-21T02:07:10.530Z,101164.56
2023-05-21T02:12:12.698Z,101168.13
2023-05-21T02:17:14.782Z,101165.47
2023-05-21T02:22:16.986Z,101166.38
2023-05-21T02:27:19.140Z,101151.28
2023-05-21T02:32:21.288Z,101154.81
2023-05-21T02:37:23.439Z,101144.91
2023-05-21T02:42:26.151Z,101152.78
2023-05-21T02:47:28.785Z,101155.66
2023-05-21T02:52:30.927Z,101150.41
2023-05-21T02:57:33.020Z,101153.09
2023-05-21T03:02:35.297Z,101147.69
2023-05-21T03:07:37.471Z,101146.84
2023-05-21T03:12:39.987Z,101148.41
2023-05-21T03:17:45.195Z,101144.06
2023-05-21T03:22:48.414Z,101153.09
2023-05-21T03:27:50.490Z,101147.91
2023-05-21T03:33:16.694Z,101140.56
2023-05-21T03:38:19.293Z,101145.03
2023-05-21T03:43:21.533Z,101147.69
2023-05-21T03:48:23.864Z,101151.28
2023-05-21T03:53:27.020Z,101162.78
2023-05-21T03:58:29.436Z,101149.94
2023-05-21T04:03:36.725Z,101156.41
2023-05-21T04:08:41.457Z,101167.16
2023-05-21T04:13:44.600Z,101172.69
2023-05-21T04:18:47.152Z,101184.09
2023-05-21T04:23:50.731Z,101181.53
2023-05-21T04:29:03.932Z,101179.84
2023-05-21T04:34:06.602Z,101180.81
2023-05-21T04:39:08.885Z,101190.69
2023-05-21T04:44:15.233Z,101181.16
2023-05-21T04:49:21.186Z,101195.28
2023-05-21T04:54:23.536Z,101183.69
2023-05-21T04:59:25.726Z,101193.47
2023-05-21T05:04:28.254Z,101194.31
2023-05-21T05:09:31.931Z,101195.28
2023-05-21T05:14:34.115Z,101203.28
2023-05-21T05:19:36.801Z,101200.75
2023-05-21T05:24:38.920Z,101201.59
2023-05-21T05:29:42.400Z,101206.91
2023-05-21T05:34:46.518Z,101208.72
2023-05-21T05:39:48.832Z,101216.56
2023-05-21T05:44:51.753Z,101215.88
2023-05-21T05:49:53.910Z,101196.41
2023-05-21T05:54:56.231Z,101208.84
2023-05-21T05:59:58.362Z,101188.16
2023-05-21T06:05:01.202Z,101202.56
2023-05-21T06:10:03.404Z,101200.03
2023-05-21T06:15:06.830Z,101199.06
2023-05-21T06:20:10.077Z,101207.88
2023-05-21T06:25:12.497Z,101201.81
2023-05-21T06:30:14.769Z,101203.53
2023-05-21T06:35:17.055Z,101208.72
2023-05-21T06:40:19.332Z,101219.47
2023-05-21T06:45:21.960Z,101216.22
2023-05-21T06:50:27.258Z,101202.56
2023-05-21T06:55:29.500Z,101209.22
2023-05-21T07:00:49.637Z,101218.16
2023-05-21T07:05:52.229Z,101216.56
2023-05-21T07:10:54.485Z,101224.31
2023-05-21T07:15:56.865Z,101218.16
2023-05-21T07:21:00.546Z,101244.66
2023-05-21T07:26:03.333Z,101223.22
2023-05-21T07:31:05.783Z,101232.91
2023-05-21T07:36:13.850Z,101218.91
2023-05-21T07:41:18.438Z,101218.03
2023-05-21T07:46:21.627Z,101223.09
2023-05-21T07:51:28.066Z,101215.13
2023-05-21T07:56:32.582Z,101210.66
2023-05-21T08:01:37.505Z,101209.81
2023-05-21T08:06:39.782Z,101215.38
2023-05-21T08:11:42.042Z,101225.88
2023-05-21T08:16:45.273Z,101234.72
2023-05-21T08:21:47.858Z,101215.00
2023-05-21T08:26:50.773Z,101226.63
2023-05-21T08:31:53.752Z,101233.75
2023-05-21T08:36:55.853Z,101237.16
2023-05-21T08:42:36.976Z,101237.25
2023-05-21T08:47:44.098Z,101251.41
2023-05-21T08:52:47.066Z,101246.94
2023-05-21T08:57:50.523Z,101245.97
2023-05-21T09:02:54.825Z,101256.63
2023-05-21T09:08:07.168Z,101265.31
2023-05-21T09:13:18.136Z,101256.47
2023-05-21T09:18:21.747Z,101259.03
2023-05-21T09:23:32.760Z,101259.03
2023-05-21T09:28:36.379Z,101259.13
2023-05-21T09:33:47.276Z,101254.81
2023-05-21T09:38:53.292Z,101275.09
2023-05-21T09:44:00.346Z,101261.78
2023-05-21T09:49:03.091Z,101265.31
2023-05-21T09:54:05.192Z,101273.28
2023-05-21T09:59:07.938Z,101267.13
2023-05-21T10:04:10.631Z,101275.94
2023-05-21T10:09:17.349Z,101268.81
2023-05-21T10:14:25.709Z,101267.97
2023-05-21T10:19:32.200Z,101278.59
2023-05-21T10:24:35.829Z,101274.03
2023-05-21T10:29:38.734Z,101271.38
2023-05-21T10:34:41.154Z,101281.16
2023-05-21T10:39:45.964Z,101279.34
2023-05-21T10:45:13.695Z,101279.47
2023-05-21T10:50:24.728Z,101275.94
2023-05-21T10:55:42.601Z,101275.25
2023-05-21T11:00:45.469Z,101282.38
2023-05-21T11:05:57.580Z,101274.13
2023-05-21T11:10:59.892Z,101269.91
2023-05-21T11:16:02.356Z,101269.06
2023-05-21T11:21:10.721Z,101266.41
2023-05-21T11:26:12.856Z,101273.44
2023-05-21T11:31:25.958Z,101273.53
2023-05-21T11:36:28.248Z,101277.91
2023-05-21T11:41:30.309Z,101279.59
2023-05-21T11:46:34.327Z,101275.25
2023-05-21T11:51:37.321Z,101272.59
2023-05-21T11:56:42.236Z,101276.19
2023-05-21T12:01:44.530Z,101276.94
2023-05-21T12:06:48.511Z,101270.88
2023-05-21T12:11:53.517Z,101277.06
2023-05-21T12:16:55.661Z,101264.59
2023-05-21T12:21:57.829Z,101269.19
2023-05-21T12:27:01.513Z,101266.41
2023-05-21T12:32:07.153Z,101262.06
2023-05-21T12:37:09.644Z,101262.16
2023-05-21T12:42:12.526Z,101260.97
2023-05-21T12:47:14.756Z,101268.97
2023-05-21T12:52:21.171Z,101268.97
2023-05-21T12:57:28.568Z,101261.09
2023-05-21T13:02:44.584Z,101263.00
2023-05-21T13:07:48.297Z,101271.72
2023-05-21T13:12:50.555Z,101258.44
2023-05-21T13:17:55.155Z,101253.97
2023-05-21T13:22:59.044Z,101248.63
2023-05-21T13:28:10.385Z,101247.16
2023-05-21T13:33:13.376Z,101245.97
2023-05-21T13:38:15.667Z,101245.25
2023-05-21T13:43:17.756Z,101237.03
2023-05-21T13:48:19.968Z,101243.44
2023-05-21T13:53:22.278Z,101241.63
2023-05-21T13:58:24.362Z,101240.78
2023-05-21T14:03:27.653Z,101234.50
2023-05-21T14:08:29.846Z,101232.69
2023-05-21T14:13:32.780Z,101238.97
2023-05-21T14:18:34.918Z,101232.78
2023-05-21T14:23:37.079Z,101234.59
2023-05-21T14:28:39.244Z,101232.78
2023-05-21T14:33:41.403Z,101236.41
2023-05-21T14:38:43.570Z,101239.91
2023-05-21T14:43:45.664Z,101229.16
2023-05-21T14:48:47.942Z,101231.81
2023-05-21T14:53:50.306Z,101224.06
2023-05-21T14:58:52.569Z,101233.63
2023-05-21T15:03:57.177Z,101223.84
2023-05-21T15:08:59.521Z,101223.59
2023-05-21T15:14:01.783Z,101225.41
2023-05-21T15:19:04.693Z,101229.16
2023-05-21T15:24:07.012Z,101236.78
2023-05-21T15:29:09.088Z,101229.06
2023-05-21T15:34:11.270Z,101227.22
2023-05-21T15:39:13.397Z,101217.69
2023-05-21T15:44:15.983Z,101220.22
2023-05-21T15:49:18.074Z,101215.50
2023-05-21T15:54:20.145Z,101220.06
2023-05-21T15:59:22.282Z,101219.00
2023-05-21T16:04:24.354Z,101223.59
2023-05-21T16:09:26.454Z,101221.06
2023-05-21T16:14:29.546Z,101221.78
2023-05-21T16:19:31.840Z,101226.13
2023-05-21T16:24:33.988Z,101219.97
2023-05-21T16:29:36.785Z,101215.38
2023-05-21T16:34:40.194Z,101211.88
2023-05-21T16:39:42.265Z,101217.41
2023-05-21T16:44:44.428Z,101213.69
2023-05-21T16:49:46.542Z,101214.66
2023-05-21T16:54:48.923Z,101223.38
2023-05-21T16:59:51.024Z,101212.84
2023-05-21T17:04:53.069Z,101204.97
2023-05-21T17:09:55.075Z,101207.50
2023-05-21T17:14:57.073Z,101208.25
2023-05-21T17:19:59.248Z,101202.09
2023-05-21T17:25:01.460Z,101219.00
2023-05-21T17:30:04.801Z,101208.38
2023-05-21T17:35:07.394Z,101202.94
2023-05-21T17:40:09.893Z,101218.03
2023-05-21T17:45:12.050Z,101211.03
2023-05-21T17:50:14.265Z,101220.81
2023-05-21T17:55:16.408Z,101226.88
2023-05-21T18:00:18.944Z,101218.03
2023-05-21T18:05:23.003Z,101219.84
2023-05-21T18:10:25.052Z,101228.78
2023-05-21T18:15:27.119Z,101224.22
2023-05-21T18:20:30.208Z,101220.81
2023-05-21T18:25:32.293Z,101223.25
2023-05-21T18:30:35.064Z,101223.38
2023-05-21T18:35:37.281Z,101225.91
2023-05-21T18:40:39.715Z,101225.91
2023-05-21T18:45:42.251Z,101222.50
2023-05-21T18:50:44.430Z,101220.59
2023-05-21T18:55:46.482Z,101225.06
2023-05-21T19:00:48.759Z,101227.84
2023-05-21T19:05:50.965Z,101218.91
2023-05-21T19:10:53.201Z,101224.22
2023-05-21T19:15:55.378Z,101225.91
2023-05-21T19:20:57.776Z,101233.91
2023-05-21T19:25:59.944Z,101232.19
2023-05-21T19:31:01.977Z,101230.25
2023-05-21T19:36:04.158Z,101238.22
2023-05-21T19:41:06.212Z,101247.19
2023-05-21T19:46:08.309Z,101252.53
2023-05-21T19:51:10.431Z,101256.13
2023-05-21T19:56:12.399Z,101260.63
2023-05-21T20:01:17.993Z,101265.09
2023-05-21T20:06:20.926Z,101272.94
2023-05-21T20:11:23.513Z,101284.56
2023-05-21T20:16:26.661Z,101282.84
2023-05-21T20:21:30.297Z,101289.88
2023-05-21T20:26:35.096Z,101299.56
2023-05-21T20:31:37.365Z,101299.56
2023-05-21T20:36:40.599Z,101302.22
2023-05-21T20:41:44.883Z,101311.91
2023-05-21T20:46:47.932Z,101312.97
2023-05-21T20:51:50.091Z,101317.34
2023-05-21T20:56:54.964Z,101305.47
2023-05-21T21:01:57.452Z,101312.97
2023-05-21T21:07:00.430Z,101311.16
2023-05-21T21:12:11.317Z,101303.06
2023-05-21T21:17:23.683Z,101303.06
2023-05-21T21:22:25.840Z,101303.06
2023-05-21T21:27:27.794Z,101301.25
2023-05-21T21:32:29.811Z,101297.84
2023-05-21T21:37:31.775Z,101314.56
2023-05-21T21:42:33.767Z,101314.78
2023-05-21T21:47:35.965Z,101319.25
2023-05-21T21:52:41.595Z,101319.13
2023-05-21T21:57:43.629Z,101316.59
2023-05-21T22:02:48.577Z,101303.03
2023-05-21T22:07:52.023Z,101322.66
2023-05-21T22:12:54.208Z,101320.84
2023-05-21T22:17:56.418Z,101316.59
2023-05-21T22:22:59.730Z,101317.44
2023-05-21T22:28:01.854Z,101306.81
2023-05-21T22:33:03.995Z,101290.72
2023-05-21T22:38:06.517Z,101293.50
2023-05-21T22:43:08.707Z,101290.84
2023-05-21T22:48:10.776Z,101290.09
2023-05-21T22:53:13.269Z,101295.31
2023-05-21T22:58:15.664Z,101294.34
2023-05-21T23:03:17.947Z,101290.00
2023-05-21T23:08:20.115Z,101277.66
2023-05-21T23:13:22.210Z,101283.72
2023-05-21T23:18:24.719Z,101285.63
2023-05-21T23:23:26.813Z,101288.19
2023-05-21T23:28:28.856Z,101292.53
2023-05-21T23:33:31.200Z,101277.53
2023-05-21T23:38:33.438Z,101270.63
2023-05-21T23:43:36.514Z,101287.31
2023-05-21T23:48:38.734Z,101279.34
2023-05-21T23:53:40.958Z,101276.56
2023-05-21T23:58:43.088Z,101274.03
